Sundance, Wyoming
Current Conditions -  °F | °C
As of 10:15 AM on Thursday 23 Oct 2014 (Local Time) from KW43 Reporting Station
Clear Clear  
Wind Chill: 57°   Ceiling: Unl
Heat Index: 57°   Visibility: 10mi
Dew Point: 23°   Wind: 8mph
Humidity: 27%   Direction: 220°SW
Pressure: 29.98"   Gusts: NA
Location:  44.41°N, 104.38°W
Report Text: KW43 231615Z AUTO 22007KT 10SM CLR 14/M05 A2998 RMK AO2
Loading
Personal Weather Stations






























Interactive Weather Map
Tropical Storm Tracking
New forecast layout! Learn more

10-Day Weather Forecast

Advertisements
Track Severe Weather on mobile